EJU41RE LIMC-GVAC
Flight info
| Callsign | EJU41RE |
|---|---|
| Flight time | 5h 57m |
| Altitude | 37000 |
| Route | NEDED DCT BORDI DCT PADKO UM984 DIVKO G7 MAMES M984 BISBA DCT RODRA M985 MGA N851 VJF L82 RUNAX UL82 IBALU UN857 TERTO/N0440F380 N857 LZR/N0440F370 N857 DEREV/N0441F380 N857 GUNET UW11 PINPO PINPO1F |
| Aircraft | A20N/M-SDE2E3FGHIRWXY/LB1 |
Departure
| Time | 2026-04-16 07:16 |
|---|---|
| Airport | Milan Malpensa International Airport (LIMC) |
Arrival
| Time | 2026-04-16 13:13 |
|---|---|
| Airport | Amílcar Cabral International Airport (GVAC) |
| Time | Latitude | Longitude | Altitude | Speed | Heading |
|---|---|---|---|---|---|
| 2026-04-16 06:53 | 45.64518 | 8.72352 | 765 ft | 0 kts | 349° |
| 2026-04-16 07:05 | 45.64515 | 8.72353 | 765 ft | 2 kts | 349° |
| 2026-04-16 07:05 | 45.64501 | 8.72357 | 764 ft | 2 kts | 349° |
| 2026-04-16 07:05 | 45.64486 | 8.72361 | 764 ft | 2 kts | 349° |
| 2026-04-16 07:05 | 45.64471 | 8.72364 | 764 ft | 2 kts | 9° |
| 2026-04-16 07:06 | 45.64456 | 8.72357 | 763 ft | 2 kts | 30° |
| 2026-04-16 07:06 | 45.64445 | 8.72343 | 763 ft | 2 kts | 52° |
| 2026-04-16 07:06 | 45.64437 | 8.72325 | 764 ft | 1 kts | 73° |
| 2026-04-16 07:06 | 45.64436 | 8.72316 | 764 ft | 1 kts | 81° |
| 2026-04-16 07:07 | 45.64436 | 8.72312 | 764 ft | 0 kts | 79° |
| 2026-04-16 07:08 | 45.64436 | 8.72315 | 763 ft | 0 kts | 79° |
| 2026-04-16 07:08 | 45.64438 | 8.72330 | 763 ft | 2 kts | 79° |
| 2026-04-16 07:09 | 45.64444 | 8.72374 | 763 ft | 6 kts | 79° |
| 2026-04-16 07:09 | 45.64416 | 8.72427 | 762 ft | 9 kts | 161° |
| 2026-04-16 07:09 | 45.64341 | 8.72450 | 761 ft | 12 kts | 169° |
| 2026-04-16 07:09 | 45.64241 | 8.72477 | 759 ft | 16 kts | 169° |
| 2026-04-16 07:10 | 45.64122 | 8.72512 | 756 ft | 18 kts | 168° |
| 2026-04-16 07:10 | 45.63992 | 8.72554 | 754 ft | 19 kts | 168° |
| 2026-04-16 07:10 | 45.63855 | 8.72591 | 752 ft | 20 kts | 169° |
| 2026-04-16 07:10 | 45.63711 | 8.72630 | 749 ft | 21 kts | 168° |
| 2026-04-16 07:11 | 45.63562 | 8.72673 | 745 ft | 22 kts | 169° |
| 2026-04-16 07:11 | 45.63406 | 8.72716 | 742 ft | 23 kts | 169° |
| 2026-04-16 07:11 | 45.63248 | 8.72760 | 739 ft | 23 kts | 169° |
| 2026-04-16 07:11 | 45.63083 | 8.72806 | 735 ft | 24 kts | 169° |
| 2026-04-16 07:12 | 45.62917 | 8.72852 | 732 ft | 24 kts | 168° |
| 2026-04-16 07:12 | 45.62745 | 8.72898 | 728 ft | 25 kts | 169° |
| 2026-04-16 07:12 | 45.62572 | 8.72946 | 724 ft | 25 kts | 169° |
| 2026-04-16 07:12 | 45.62397 | 8.72995 | 720 ft | 25 kts | 169° |
| 2026-04-16 07:13 | 45.62218 | 8.73044 | 716 ft | 26 kts | 169° |
| 2026-04-16 07:13 | 45.62038 | 8.73094 | 712 ft | 26 kts | 169° |
| 2026-04-16 07:13 | 45.61870 | 8.73141 | 708 ft | 19 kts | 168° |
| 2026-04-16 07:13 | 45.61748 | 8.73204 | 705 ft | 14 kts | 140° |
| 2026-04-16 07:14 | 45.61685 | 8.73329 | 702 ft | 16 kts | 123° |
| 2026-04-16 07:14 | 45.61618 | 8.73472 | 701 ft | 17 kts | 123° |
| 2026-04-16 07:14 | 45.61594 | 8.73636 | 699 ft | 17 kts | 80° |
| 2026-04-16 07:14 | 45.61637 | 8.73734 | 699 ft | 11 kts | 2° |
| 2026-04-16 07:15 | 45.61784 | 8.73694 | 702 ft | 47 kts | 349° |
| 2026-04-16 07:15 | 45.62319 | 8.73545 | 715 ft | 107 kts | 349° |
| 2026-04-16 07:15 | 45.63235 | 8.73293 | 736 ft | 158 kts | 349° |
| 2026-04-16 07:15 | 45.64396 | 8.72985 | 997 ft | 177 kts | 349° |
| 2026-04-16 07:16 | 45.65601 | 8.72714 | 1601 ft | 176 kts | 2° |
| 2026-04-16 07:16 | 45.66680 | 8.73419 | 2179 ft | 178 kts | 53° |
| 2026-04-16 07:16 | 45.67147 | 8.75017 | 2749 ft | 182 kts | 72° |
| 2026-04-16 07:16 | 45.67535 | 8.76813 | 3120 ft | 197 kts | 76° |
| 2026-04-16 07:17 | 45.67406 | 8.78814 | 3395 ft | 222 kts | 118° |
| 2026-04-16 07:17 | 45.66254 | 8.80344 | 3830 ft | 240 kts | 159° |
| 2026-04-16 07:17 | 45.64572 | 8.80519 | 4369 ft | 252 kts | 197° |
| 2026-04-16 07:17 | 45.63097 | 8.79207 | 4902 ft | 262 kts | 232° |
| 2026-04-16 07:18 | 45.62375 | 8.76820 | 5509 ft | 268 kts | 266° |
| 2026-04-16 07:18 | 45.62310 | 8.74146 | 6214 ft | 273 kts | 267° |
| 2026-04-16 07:18 | 45.62008 | 8.71463 | 6900 ft | 279 kts | 257° |
| 2026-04-16 07:18 | 45.61486 | 8.68816 | 7651 ft | 282 kts | 253° |
| 2026-04-16 07:19 | 45.60863 | 8.66147 | 8383 ft | 285 kts | 252° |
| 2026-04-16 07:19 | 45.60205 | 8.63504 | 9087 ft | 289 kts | 251° |
| 2026-04-16 07:19 | 45.59751 | 8.61716 | 9557 ft | 291 kts | 251° |
| 2026-04-16 07:20 | 45.59714 | 8.61571 | 9598 ft | 291 kts | 251° |
| 2026-04-16 07:20 | 45.59022 | 8.58882 | 10270 ft | 294 kts | 251° |
| 2026-04-16 07:20 | 45.58311 | 8.56122 | 10744 ft | 305 kts | 251° |
| 2026-04-16 07:21 | 45.57553 | 8.53180 | 11052 ft | 322 kts | 251° |
| 2026-04-16 07:21 | 45.56773 | 8.50156 | 11522 ft | 332 kts | 251° |
| 2026-04-16 07:21 | 45.55917 | 8.47118 | 12166 ft | 336 kts | 243° |
| 2026-04-16 07:21 | 45.54371 | 8.44607 | 12799 ft | 341 kts | 216° |
| 2026-04-16 07:22 | 45.52246 | 8.43199 | 13457 ft | 343 kts | 199° |
| 2026-04-16 07:22 | 45.49941 | 8.42117 | 14020 ft | 349 kts | 199° |
| 2026-04-16 07:22 | 45.47635 | 8.41024 | 14602 ft | 353 kts | 200° |
| 2026-04-16 07:22 | 45.45300 | 8.39898 | 15158 ft | 357 kts | 200° |
| 2026-04-16 07:23 | 45.42950 | 8.38753 | 15662 ft | 361 kts | 200° |
| 2026-04-16 07:23 | 45.40569 | 8.37584 | 16207 ft | 364 kts | 200° |
| 2026-04-16 07:23 | 45.38185 | 8.36408 | 16763 ft | 366 kts | 200° |
| 2026-04-16 07:23 | 45.35732 | 8.35199 | 17294 ft | 370 kts | 201° |
| 2026-04-16 07:24 | 45.33317 | 8.34002 | 17834 ft | 373 kts | 200° |
| 2026-04-16 07:24 | 45.30858 | 8.32775 | 18391 ft | 376 kts | 200° |
| 2026-04-16 07:24 | 45.28370 | 8.31538 | 18927 ft | 379 kts | 200° |
| 2026-04-16 07:24 | 45.25862 | 8.30300 | 19457 ft | 382 kts | 200° |
| 2026-04-16 07:25 | 45.23342 | 8.29060 | 19983 ft | 385 kts | 200° |
| 2026-04-16 07:25 | 45.20784 | 8.27806 | 20492 ft | 388 kts | 200° |
| 2026-04-16 07:25 | 45.18223 | 8.26551 | 20981 ft | 391 kts | 200° |
| 2026-04-16 07:25 | 45.15631 | 8.25281 | 21483 ft | 394 kts | 200° |
| 2026-04-16 07:26 | 45.13004 | 8.24026 | 21985 ft | 397 kts | 198° |
| 2026-04-16 07:26 | 45.10341 | 8.22990 | 22458 ft | 400 kts | 194° |
| 2026-04-16 07:26 | 45.07604 | 8.22220 | 22900 ft | 403 kts | 190° |
| 2026-04-16 07:26 | 45.04796 | 8.21607 | 23378 ft | 406 kts | 189° |
| 2026-04-16 07:27 | 45.02002 | 8.21016 | 23814 ft | 409 kts | 189° |
| 2026-04-16 07:27 | 44.99204 | 8.20421 | 24253 ft | 411 kts | 189° |
| 2026-04-16 07:27 | 44.96381 | 8.19821 | 24701 ft | 413 kts | 189° |
| 2026-04-16 07:27 | 44.93520 | 8.19210 | 25119 ft | 415 kts | 189° |
| 2026-04-16 07:28 | 44.90639 | 8.18593 | 25498 ft | 418 kts | 189° |
| 2026-04-16 07:28 | 44.87745 | 8.17976 | 25884 ft | 420 kts | 189° |
| 2026-04-16 07:28 | 44.84875 | 8.17366 | 26249 ft | 422 kts | 189° |
| 2026-04-16 07:28 | 44.81944 | 8.16742 | 26609 ft | 425 kts | 189° |
| 2026-04-16 07:29 | 44.79019 | 8.16119 | 26957 ft | 427 kts | 189° |
| 2026-04-16 07:29 | 44.76103 | 8.15497 | 27294 ft | 429 kts | 189° |
| 2026-04-16 07:29 | 44.73159 | 8.14864 | 27624 ft | 431 kts | 191° |
| 2026-04-16 07:29 | 44.70210 | 8.14004 | 27968 ft | 432 kts | 196° |
| 2026-04-16 07:30 | 44.67322 | 8.12787 | 28301 ft | 433 kts | 201° |
| 2026-04-16 07:30 | 44.64515 | 8.11248 | 28625 ft | 433 kts | 204° |
| 2026-04-16 07:30 | 44.61739 | 8.09620 | 28944 ft | 435 kts | 204° |
| 2026-04-16 07:30 | 44.58930 | 8.07962 | 29243 ft | 437 kts | 204° |
| 2026-04-16 07:31 | 44.56119 | 8.06307 | 29529 ft | 439 kts | 204° |
| 2026-04-16 07:31 | 44.53315 | 8.04662 | 29819 ft | 441 kts | 204° |
| 2026-04-16 07:31 | 44.50449 | 8.02988 | 30103 ft | 442 kts | 204° |
| 2026-04-16 07:31 | 44.47607 | 8.01331 | 30379 ft | 444 kts | 204° |
| 2026-04-16 07:32 | 44.44780 | 7.99686 | 30647 ft | 445 kts | 204° |
| 2026-04-16 07:32 | 44.41924 | 7.98027 | 30896 ft | 447 kts | 204° |
| 2026-04-16 07:32 | 44.39051 | 7.96360 | 31147 ft | 449 kts | 204° |
| 2026-04-16 07:32 | 44.36150 | 7.94678 | 31408 ft | 450 kts | 204° |
| 2026-04-16 07:33 | 44.33267 | 7.93009 | 31658 ft | 451 kts | 204° |
| 2026-04-16 07:33 | 44.30358 | 7.91328 | 31896 ft | 452 kts | 204° |
| 2026-04-16 07:33 | 44.27464 | 7.89656 | 32112 ft | 453 kts | 204° |
| 2026-04-16 07:33 | 44.24530 | 7.87963 | 32377 ft | 453 kts | 204° |
| 2026-04-16 07:34 | 44.21627 | 7.86292 | 32684 ft | 452 kts | 204° |
| 2026-04-16 07:34 | 44.18756 | 7.84640 | 32988 ft | 450 kts | 204° |
| 2026-04-16 07:34 | 44.15855 | 7.82975 | 33279 ft | 449 kts | 204° |
| 2026-04-16 07:34 | 44.13002 | 7.81337 | 33550 ft | 447 kts | 204° |
| 2026-04-16 07:35 | 44.10147 | 7.79648 | 33807 ft | 446 kts | 207° |
| 2026-04-16 07:35 | 44.07430 | 7.77544 | 34054 ft | 443 kts | 215° |
| 2026-04-16 07:35 | 44.04973 | 7.75012 | 34296 ft | 440 kts | 222° |
| 2026-04-16 07:35 | 44.02769 | 7.72078 | 34493 ft | 438 kts | 229° |
| 2026-04-16 07:36 | 44.00863 | 7.68810 | 34651 ft | 437 kts | 237° |
| 2026-04-16 07:36 | 43.99269 | 7.65252 | 34800 ft | 435 kts | 244° |
| 2026-04-16 07:36 | 43.97979 | 7.61482 | 34950 ft | 434 kts | 248° |
| 2026-04-16 07:36 | 43.96785 | 7.57664 | 35105 ft | 434 kts | 248° |
| 2026-04-16 07:37 | 43.95588 | 7.53801 | 35263 ft | 434 kts | 248° |
| 2026-04-16 07:37 | 43.94408 | 7.50008 | 35420 ft | 433 kts | 248° |
| 2026-04-16 07:37 | 43.93204 | 7.46165 | 35584 ft | 432 kts | 248° |
| 2026-04-16 07:37 | 43.92013 | 7.42378 | 35736 ft | 432 kts | 248° |
| 2026-04-16 07:38 | 43.90809 | 7.38559 | 35866 ft | 432 kts | 248° |
| 2026-04-16 07:38 | 43.89612 | 7.34780 | 35979 ft | 432 kts | 247° |
| 2026-04-16 07:38 | 43.88383 | 7.30941 | 36110 ft | 431 kts | 247° |
| 2026-04-16 07:38 | 43.87166 | 7.27141 | 36233 ft | 431 kts | 248° |
| 2026-04-16 07:39 | 43.85959 | 7.23372 | 36350 ft | 431 kts | 247° |
| 2026-04-16 07:39 | 43.84754 | 7.19608 | 36488 ft | 430 kts | 248° |
| 2026-04-16 07:39 | 43.83537 | 7.15804 | 36630 ft | 430 kts | 248° |
| 2026-04-16 07:39 | 43.82339 | 7.12062 | 36774 ft | 430 kts | 248° |
| 2026-04-16 07:40 | 43.81116 | 7.08246 | 36921 ft | 429 kts | 248° |
| 2026-04-16 07:40 | 43.79912 | 7.04493 | 37038 ft | 429 kts | 248° |
| 2026-04-16 07:40 | 43.78704 | 7.00732 | 37120 ft | 430 kts | 248° |
| 2026-04-16 07:41 | 43.76286 | 6.93221 | 37122 ft | 430 kts | 248° |
| 2026-04-16 07:41 | 43.73842 | 6.85648 | 37126 ft | 430 kts | 248° |
| 2026-04-16 07:42 | 43.71413 | 6.78147 | 37125 ft | 430 kts | 248° |
| 2026-04-16 07:42 | 43.68966 | 6.70608 | 37127 ft | 431 kts | 248° |
| 2026-04-16 07:43 | 43.66513 | 6.63070 | 37124 ft | 431 kts | 248° |
| 2026-04-16 07:43 | 43.64057 | 6.55548 | 37120 ft | 431 kts | 248° |
| 2026-04-16 07:44 | 43.61597 | 6.48031 | 37114 ft | 431 kts | 248° |
| 2026-04-16 07:44 | 43.59122 | 6.40492 | 37102 ft | 431 kts | 248° |
| 2026-04-16 07:45 | 43.56625 | 6.32907 | 37101 ft | 431 kts | 247° |
| 2026-04-16 07:45 | 43.54156 | 6.25406 | 37100 ft | 431 kts | 247° |
| 2026-04-16 07:46 | 43.51664 | 6.17860 | 37102 ft | 431 kts | 247° |
| 2026-04-16 07:46 | 43.49163 | 6.10325 | 37097 ft | 431 kts | 247° |
| 2026-04-16 07:47 | 43.46677 | 6.02854 | 37095 ft | 431 kts | 247° |
| 2026-04-16 07:47 | 43.44167 | 5.95339 | 37091 ft | 432 kts | 247° |
| 2026-04-16 07:48 | 43.41653 | 5.87834 | 37091 ft | 432 kts | 248° |
| 2026-04-16 07:48 | 43.39128 | 5.80315 | 37097 ft | 433 kts | 248° |
| 2026-04-16 07:49 | 43.36612 | 5.72841 | 37095 ft | 432 kts | 248° |
| 2026-04-16 07:49 | 43.34097 | 5.65390 | 37094 ft | 432 kts | 248° |
| 2026-04-16 07:50 | 43.31564 | 5.57910 | 37090 ft | 431 kts | 248° |
| 2026-04-16 07:50 | 43.29039 | 5.50475 | 37093 ft | 431 kts | 248° |
| 2026-04-16 07:51 | 43.26488 | 5.42990 | 37093 ft | 433 kts | 248° |
| 2026-04-16 07:51 | 43.23927 | 5.35491 | 37093 ft | 433 kts | 248° |
| 2026-04-16 07:52 | 43.21469 | 5.27942 | 37092 ft | 433 kts | 249° |
| 2026-04-16 07:52 | 43.19132 | 5.20363 | 37090 ft | 432 kts | 249° |
| 2026-04-16 07:53 | 43.16781 | 5.12831 | 37090 ft | 432 kts | 249° |
| 2026-04-16 07:53 | 43.14410 | 5.05309 | 37095 ft | 432 kts | 249° |
| 2026-04-16 07:54 | 43.12033 | 4.97801 | 37098 ft | 432 kts | 249° |
| 2026-04-16 07:54 | 43.09648 | 4.90282 | 37098 ft | 432 kts | 249° |
| 2026-04-16 07:55 | 43.06849 | 4.82987 | 37096 ft | 436 kts | 240° |
| 2026-04-16 07:55 | 43.03107 | 4.76502 | 37108 ft | 441 kts | 229° |
| 2026-04-16 07:56 | 42.98465 | 4.70992 | 37106 ft | 445 kts | 218° |
| 2026-04-16 07:56 | 42.93375 | 4.66250 | 37111 ft | 446 kts | 217° |
| 2026-04-16 07:57 | 42.88211 | 4.61509 | 37110 ft | 447 kts | 217° |
| 2026-04-16 07:57 | 42.83100 | 4.56823 | 37112 ft | 447 kts | 217° |
| 2026-04-16 07:58 | 42.77926 | 4.52061 | 37113 ft | 447 kts | 217° |
| 2026-04-16 07:58 | 42.72784 | 4.47327 | 37121 ft | 448 kts | 217° |
| 2026-04-16 07:59 | 42.67667 | 4.42622 | 37122 ft | 447 kts | 217° |
| 2026-04-16 07:59 | 42.62517 | 4.37895 | 37122 ft | 448 kts | 217° |
| 2026-04-16 08:00 | 42.57354 | 4.33158 | 37123 ft | 448 kts | 217° |
| 2026-04-16 08:00 | 42.52209 | 4.28427 | 37129 ft | 449 kts | 217° |
| 2026-04-16 08:01 | 42.47027 | 4.23689 | 37130 ft | 449 kts | 217° |
| 2026-04-16 08:01 | 42.41854 | 4.18979 | 37130 ft | 449 kts | 216° |
| 2026-04-16 08:02 | 42.36678 | 4.14281 | 37131 ft | 449 kts | 216° |
| 2026-04-16 08:02 | 42.28939 | 4.07270 | 37137 ft | 450 kts | 217° |
| 2026-04-16 08:03 | 42.24092 | 4.02014 | 37134 ft | 445 kts | 228° |
| 2026-04-16 08:03 | 42.20143 | 3.95719 | 37132 ft | 440 kts | 239° |
| 2026-04-16 08:04 | 42.17171 | 3.88610 | 37131 ft | 435 kts | 249° |
| 2026-04-16 08:04 | 42.14745 | 3.81157 | 37133 ft | 435 kts | 250° |
| 2026-04-16 08:05 | 42.12335 | 3.73748 | 37132 ft | 436 kts | 250° |
| 2026-04-16 08:05 | 42.09839 | 3.66313 | 37144 ft | 438 kts | 247° |
| 2026-04-16 08:06 | 42.06834 | 3.59203 | 37138 ft | 441 kts | 240° |
| 2026-04-16 08:06 | 42.03303 | 3.52432 | 37138 ft | 443 kts | 238° |
| 2026-04-16 08:07 | 41.99733 | 3.45736 | 37134 ft | 443 kts | 238° |
| 2026-04-16 08:07 | 41.96153 | 3.39025 | 37125 ft | 443 kts | 238° |
| 2026-04-16 08:08 | 41.92575 | 3.32319 | 37133 ft | 443 kts | 238° |
| 2026-04-16 08:08 | 41.88988 | 3.25598 | 37135 ft | 444 kts | 238° |
| 2026-04-16 08:09 | 41.85388 | 3.18928 | 37133 ft | 444 kts | 238° |
| 2026-04-16 08:09 | 41.81776 | 3.12234 | 37141 ft | 445 kts | 238° |
| 2026-04-16 08:10 | 41.78149 | 3.05508 | 37143 ft | 445 kts | 238° |
| 2026-04-16 08:10 | 41.74536 | 2.98817 | 37146 ft | 445 kts | 238° |
| 2026-04-16 08:11 | 41.70922 | 2.92135 | 37157 ft | 444 kts | 238° |
| 2026-04-16 08:11 | 41.67321 | 2.85493 | 37163 ft | 444 kts | 238° |
| 2026-04-16 08:12 | 41.63697 | 2.78825 | 37160 ft | 444 kts | 238° |
| 2026-04-16 08:12 | 41.60077 | 2.72173 | 37154 ft | 444 kts | 238° |
| 2026-04-16 08:13 | 41.56453 | 2.65536 | 37153 ft | 443 kts | 238° |
| 2026-04-16 08:13 | 41.52813 | 2.58878 | 37153 ft | 443 kts | 238° |
| 2026-04-16 08:14 | 41.49197 | 2.52279 | 37152 ft | 443 kts | 238° |
| 2026-04-16 08:14 | 41.45571 | 2.45680 | 37156 ft | 443 kts | 238° |
| 2026-04-16 08:15 | 41.41930 | 2.39065 | 37163 ft | 443 kts | 238° |
| 2026-04-16 08:15 | 41.38317 | 2.32509 | 37168 ft | 442 kts | 238° |
| 2026-04-16 08:16 | 41.34688 | 2.25916 | 37167 ft | 443 kts | 238° |
| 2026-04-16 08:16 | 41.31041 | 2.19323 | 37314 ft | 444 kts | 237° |
| 2026-04-16 08:17 | 41.27384 | 2.12737 | 37192 ft | 441 kts | 237° |
| 2026-04-16 08:17 | 41.23752 | 2.06212 | 37174 ft | 442 kts | 238° |
| 2026-04-16 08:19 | 41.09155 | 1.80133 | 37164 ft | 441 kts | 238° |
| 2026-04-16 08:20 | 41.05470 | 1.73654 | 37158 ft | 441 kts | 235° |
| 2026-04-16 08:20 | 41.01426 | 1.67523 | 37160 ft | 444 kts | 232° |
| 2026-04-16 08:21 | 40.97276 | 1.61468 | 37161 ft | 443 kts | 232° |
| 2026-04-16 08:21 | 40.93148 | 1.55449 | 37158 ft | 442 kts | 232° |
| 2026-04-16 08:22 | 40.89026 | 1.49450 | 37160 ft | 442 kts | 232° |
| 2026-04-16 08:22 | 40.84911 | 1.43505 | 37154 ft | 442 kts | 232° |
| 2026-04-16 08:23 | 40.80764 | 1.37499 | 37162 ft | 442 kts | 232° |
| 2026-04-16 08:23 | 40.76654 | 1.31539 | 37159 ft | 442 kts | 231° |
| 2026-04-16 08:24 | 40.72525 | 1.25557 | 37157 ft | 441 kts | 231° |
| 2026-04-16 08:24 | 40.68412 | 1.19619 | 37171 ft | 441 kts | 232° |
| 2026-04-16 08:25 | 40.64267 | 1.13640 | 37160 ft | 441 kts | 232° |
| 2026-04-16 08:25 | 40.60146 | 1.07715 | 37169 ft | 440 kts | 231° |
| 2026-04-16 08:26 | 40.58088 | 1.04765 | 36819 ft | 440 kts | 232° |
| 2026-04-16 08:26 | 40.56042 | 1.01831 | 37046 ft | 438 kts | 232° |
| 2026-04-16 08:26 | 40.51921 | 0.95921 | 37143 ft | 440 kts | 232° |
| 2026-04-16 08:27 | 40.47785 | 0.90011 | 37161 ft | 440 kts | 231° |
| 2026-04-16 08:27 | 40.43656 | 0.84125 | 37169 ft | 440 kts | 231° |
| 2026-04-16 08:28 | 40.39508 | 0.78226 | 37166 ft | 440 kts | 231° |
| 2026-04-16 08:28 | 40.35372 | 0.72360 | 37168 ft | 439 kts | 231° |
| 2026-04-16 08:29 | 40.31231 | 0.66495 | 37172 ft | 438 kts | 231° |
| 2026-04-16 08:29 | 40.27099 | 0.60657 | 37166 ft | 438 kts | 231° |
| 2026-04-16 08:30 | 40.22970 | 0.54826 | 37163 ft | 438 kts | 231° |
| 2026-04-16 08:30 | 40.18862 | 0.49038 | 37168 ft | 437 kts | 232° |
| 2026-04-16 08:31 | 40.14717 | 0.43210 | 37173 ft | 437 kts | 231° |
| 2026-04-16 08:31 | 40.10583 | 0.37414 | 37166 ft | 437 kts | 231° |
| 2026-04-16 08:32 | 40.06438 | 0.31606 | 37164 ft | 437 kts | 231° |
| 2026-04-16 08:32 | 40.02323 | 0.25843 | 37164 ft | 436 kts | 231° |
| 2026-04-16 08:33 | 39.98174 | 0.20046 | 37164 ft | 436 kts | 231° |
| 2026-04-16 08:33 | 39.94067 | 0.14314 | 37163 ft | 436 kts | 231° |
| 2026-04-16 08:34 | 39.89995 | 0.08654 | 37153 ft | 436 kts | 231° |
| 2026-04-16 08:34 | 39.85763 | 0.02821 | 37160 ft | 435 kts | 231° |
| 2026-04-16 08:35 | 39.81649 | -0.02865 | 37162 ft | 434 kts | 231° |
| 2026-04-16 08:35 | 39.77512 | -0.08588 | 37154 ft | 433 kts | 231° |
| 2026-04-16 08:36 | 39.73386 | -0.14278 | 37164 ft | 433 kts | 231° |
| 2026-04-16 08:36 | 39.69280 | -0.19934 | 37165 ft | 432 kts | 231° |
| 2026-04-16 08:37 | 39.65174 | -0.25581 | 37171 ft | 431 kts | 231° |
| 2026-04-16 08:37 | 39.63128 | -0.28387 | 37319 ft | 432 kts | 231° |
| 2026-04-16 08:37 | 39.61068 | -0.31213 | 37241 ft | 430 kts | 231° |
| 2026-04-16 08:38 | 39.56954 | -0.36847 | 37195 ft | 429 kts | 231° |
| 2026-04-16 08:38 | 39.52879 | -0.42414 | 37191 ft | 429 kts | 231° |
| 2026-04-16 08:39 | 39.48833 | -0.48056 | 37183 ft | 426 kts | 234° |
| 2026-04-16 08:39 | 39.45197 | -0.54058 | 37193 ft | 423 kts | 238° |
| 2026-04-16 08:40 | 39.41664 | -0.60098 | 37184 ft | 422 kts | 238° |
| 2026-04-16 08:40 | 39.38117 | -0.66151 | 37191 ft | 422 kts | 238° |
| 2026-04-16 08:41 | 39.34581 | -0.72185 | 37197 ft | 422 kts | 237° |
| 2026-04-16 08:41 | 39.31041 | -0.78197 | 37203 ft | 421 kts | 237° |
| 2026-04-16 08:42 | 39.27501 | -0.84195 | 37209 ft | 421 kts | 237° |
| 2026-04-16 08:42 | 39.23948 | -0.90211 | 37206 ft | 421 kts | 238° |
| 2026-04-16 08:43 | 39.20428 | -0.96160 | 37213 ft | 420 kts | 238° |
| 2026-04-16 08:43 | 39.16891 | -1.02123 | 37212 ft | 420 kts | 238° |
| 2026-04-16 08:44 | 39.13341 | -1.08088 | 37210 ft | 417 kts | 238° |
| 2026-04-16 08:44 | 39.09833 | -1.13970 | 37225 ft | 416 kts | 238° |
| 2026-04-16 08:45 | 39.06311 | -1.19865 | 37226 ft | 416 kts | 238° |
| 2026-04-16 08:45 | 39.02790 | -1.25750 | 37228 ft | 416 kts | 238° |
| 2026-04-16 08:46 | 38.99284 | -1.31617 | 37231 ft | 416 kts | 238° |
| 2026-04-16 08:46 | 38.95772 | -1.37480 | 37231 ft | 415 kts | 238° |
| 2026-04-16 08:47 | 38.92259 | -1.43329 | 37230 ft | 415 kts | 238° |
| 2026-04-16 08:47 | 38.88715 | -1.49199 | 37231 ft | 414 kts | 238° |
| 2026-04-16 08:48 | 38.85192 | -1.54990 | 37230 ft | 414 kts | 238° |
| 2026-04-16 08:48 | 38.81681 | -1.60779 | 37238 ft | 413 kts | 238° |
| 2026-04-16 08:49 | 38.78157 | -1.66599 | 37230 ft | 413 kts | 238° |
| 2026-04-16 08:49 | 38.74647 | -1.72404 | 37229 ft | 411 kts | 238° |
| 2026-04-16 08:50 | 38.71160 | -1.78148 | 37231 ft | 411 kts | 238° |
| 2026-04-16 08:50 | 38.67656 | -1.83905 | 37232 ft | 412 kts | 238° |
| 2026-04-16 08:51 | 38.64133 | -1.89678 | 37226 ft | 411 kts | 238° |
| 2026-04-16 08:51 | 38.60625 | -1.95418 | 37235 ft | 411 kts | 238° |
| 2026-04-16 08:52 | 38.57112 | -2.01151 | 37231 ft | 410 kts | 238° |
| 2026-04-16 08:52 | 38.53596 | -2.06878 | 37228 ft | 409 kts | 238° |
| 2026-04-16 08:53 | 38.50084 | -2.12595 | 37234 ft | 409 kts | 238° |
| 2026-04-16 08:53 | 38.46585 | -2.18287 | 37233 ft | 409 kts | 238° |
| 2026-04-16 08:54 | 38.43081 | -2.23972 | 37240 ft | 409 kts | 238° |
| 2026-04-16 08:54 | 38.39575 | -2.29646 | 37233 ft | 409 kts | 238° |
| 2026-04-16 08:55 | 38.36011 | -2.35292 | 37232 ft | 411 kts | 235° |
| 2026-04-16 08:55 | 38.32125 | -2.40622 | 37233 ft | 413 kts | 232° |
| 2026-04-16 08:56 | 38.28191 | -2.45908 | 37227 ft | 413 kts | 232° |
| 2026-04-16 08:56 | 38.24225 | -2.51227 | 37234 ft | 413 kts | 232° |
| 2026-04-16 08:57 | 38.20287 | -2.56501 | 37233 ft | 413 kts | 232° |
| 2026-04-16 08:57 | 38.16347 | -2.61768 | 37230 ft | 412 kts | 232° |
| 2026-04-16 08:58 | 38.12407 | -2.67028 | 37234 ft | 412 kts | 232° |
| 2026-04-16 08:58 | 38.08460 | -2.72306 | 37233 ft | 412 kts | 232° |
| 2026-04-16 08:59 | 38.04519 | -2.77552 | 37237 ft | 412 kts | 232° |
| 2026-04-16 08:59 | 38.00575 | -2.82784 | 37231 ft | 412 kts | 231° |
| 2026-04-16 09:00 | 37.96617 | -2.88023 | 37222 ft | 412 kts | 231° |
| 2026-04-16 09:00 | 37.92658 | -2.93273 | 37215 ft | 412 kts | 231° |
| 2026-04-16 09:01 | 37.86710 | -3.01111 | 37213 ft | 413 kts | 231° |
| 2026-04-16 09:02 | 37.82719 | -3.06343 | 37208 ft | 413 kts | 231° |
| 2026-04-16 09:02 | 37.78765 | -3.11538 | 37216 ft | 413 kts | 231° |
| 2026-04-16 09:03 | 37.74794 | -3.16751 | 37222 ft | 412 kts | 231° |
| 2026-04-16 09:03 | 37.70829 | -3.21952 | 37227 ft | 411 kts | 231° |
| 2026-04-16 09:04 | 37.66864 | -3.27144 | 37227 ft | 411 kts | 231° |
| 2026-04-16 09:04 | 37.62905 | -3.32321 | 37235 ft | 411 kts | 231° |
| 2026-04-16 09:05 | 37.58928 | -3.37510 | 37237 ft | 412 kts | 231° |
| 2026-04-16 09:05 | 37.54967 | -3.42671 | 37239 ft | 412 kts | 230° |
| 2026-04-16 09:06 | 37.50968 | -3.47871 | 37241 ft | 412 kts | 230° |
| 2026-04-16 09:06 | 37.46972 | -3.53058 | 37242 ft | 412 kts | 230° |
| 2026-04-16 09:07 | 37.42975 | -3.58236 | 37240 ft | 413 kts | 230° |
| 2026-04-16 09:07 | 37.38978 | -3.63409 | 37227 ft | 413 kts | 230° |
| 2026-04-16 09:08 | 37.34973 | -3.68603 | 37217 ft | 413 kts | 230° |
| 2026-04-16 09:08 | 37.30954 | -3.73811 | 37210 ft | 413 kts | 229° |
| 2026-04-16 09:09 | 37.26953 | -3.78974 | 37207 ft | 414 kts | 229° |
| 2026-04-16 09:09 | 37.22938 | -3.84138 | 37205 ft | 414 kts | 229° |
| 2026-04-16 09:10 | 37.18916 | -3.89300 | 37205 ft | 414 kts | 229° |
| 2026-04-16 09:10 | 37.14893 | -3.94455 | 37206 ft | 413 kts | 229° |
| 2026-04-16 09:11 | 37.10889 | -3.99577 | 37206 ft | 413 kts | 229° |
| 2026-04-16 09:11 | 37.06850 | -4.04735 | 37219 ft | 413 kts | 229° |
| 2026-04-16 09:12 | 37.02816 | -4.09878 | 37225 ft | 414 kts | 229° |
| 2026-04-16 09:12 | 36.98795 | -4.14995 | 37227 ft | 413 kts | 229° |
| 2026-04-16 09:13 | 36.94771 | -4.20107 | 37219 ft | 413 kts | 229° |
| 2026-04-16 09:13 | 36.90741 | -4.25213 | 37207 ft | 414 kts | 228° |
| 2026-04-16 09:14 | 36.86709 | -4.30360 | 37195 ft | 413 kts | 231° |
| 2026-04-16 09:14 | 36.83150 | -4.35940 | 37179 ft | 410 kts | 238° |
| 2026-04-16 09:15 | 36.80259 | -4.42033 | 37165 ft | 408 kts | 246° |
| 2026-04-16 09:15 | 36.78067 | -4.48500 | 37158 ft | 406 kts | 252° |
| 2026-04-16 09:16 | 36.76127 | -4.55155 | 37155 ft | 407 kts | 252° |
| 2026-04-16 09:16 | 36.74200 | -4.61761 | 37152 ft | 407 kts | 252° |
| 2026-04-16 09:17 | 36.72257 | -4.68405 | 37155 ft | 408 kts | 251° |
| 2026-04-16 09:17 | 36.70324 | -4.75011 | 37156 ft | 408 kts | 251° |
| 2026-04-16 09:18 | 36.68372 | -4.81651 | 37159 ft | 408 kts | 251° |
| 2026-04-16 09:18 | 36.66412 | -4.88298 | 37164 ft | 409 kts | 251° |
| 2026-04-16 09:19 | 36.64443 | -4.94955 | 37165 ft | 409 kts | 251° |
| 2026-04-16 09:19 | 36.62480 | -5.01572 | 37165 ft | 409 kts | 251° |
| 2026-04-16 09:20 | 36.60518 | -5.08174 | 37166 ft | 409 kts | 251° |
| 2026-04-16 09:20 | 36.58539 | -5.14812 | 37165 ft | 409 kts | 251° |
| 2026-04-16 09:21 | 36.56564 | -5.21421 | 37163 ft | 410 kts | 251° |
| 2026-04-16 09:21 | 36.54573 | -5.28063 | 37163 ft | 410 kts | 250° |
| 2026-04-16 09:22 | 36.52585 | -5.34684 | 37161 ft | 411 kts | 250° |
| 2026-04-16 09:22 | 36.50425 | -5.41263 | 37157 ft | 412 kts | 246° |
| 2026-04-16 09:23 | 36.47723 | -5.47519 | 37158 ft | 412 kts | 241° |
| 2026-04-16 09:23 | 36.44833 | -5.53640 | 37154 ft | 412 kts | 241° |
| 2026-04-16 09:24 | 36.41933 | -5.59773 | 37147 ft | 413 kts | 241° |
| 2026-04-16 09:24 | 36.39028 | -5.65905 | 37140 ft | 413 kts | 240° |
| 2026-04-16 09:25 | 36.36134 | -5.72024 | 37137 ft | 413 kts | 240° |
| 2026-04-16 09:25 | 36.33222 | -5.78162 | 37130 ft | 414 kts | 240° |
| 2026-04-16 09:26 | 36.30307 | -5.84280 | 37126 ft | 413 kts | 240° |
| 2026-04-16 09:26 | 36.27377 | -5.90414 | 37121 ft | 413 kts | 240° |
| 2026-04-16 09:27 | 36.24432 | -5.96484 | 37118 ft | 414 kts | 238° |
| 2026-04-16 09:27 | 36.21080 | -6.02279 | 37118 ft | 415 kts | 233° |
| 2026-04-16 09:28 | 36.17577 | -6.07988 | 37117 ft | 415 kts | 233° |
| 2026-04-16 09:28 | 36.14105 | -6.13635 | 37117 ft | 415 kts | 233° |
| 2026-04-16 09:29 | 36.10603 | -6.19318 | 37117 ft | 415 kts | 233° |
| 2026-04-16 09:29 | 36.07102 | -6.24994 | 37116 ft | 415 kts | 233° |
| 2026-04-16 09:30 | 36.03624 | -6.30619 | 37117 ft | 415 kts | 233° |
| 2026-04-16 09:30 | 36.00128 | -6.36265 | 37115 ft | 415 kts | 233° |
| 2026-04-16 09:31 | 35.96611 | -6.41930 | 37118 ft | 415 kts | 233° |
| 2026-04-16 09:31 | 35.93103 | -6.47578 | 37114 ft | 415 kts | 233° |
| 2026-04-16 09:32 | 35.89601 | -6.53217 | 37114 ft | 416 kts | 233° |
| 2026-04-16 09:32 | 35.86057 | -6.58868 | 37110 ft | 416 kts | 232° |
| 2026-04-16 09:33 | 35.82533 | -6.64504 | 37110 ft | 416 kts | 233° |
| 2026-04-16 09:33 | 35.79039 | -6.70111 | 37111 ft | 416 kts | 232° |
| 2026-04-16 09:34 | 35.75518 | -6.75758 | 37111 ft | 416 kts | 232° |
| 2026-04-16 09:34 | 35.71995 | -6.81385 | 37109 ft | 416 kts | 232° |
| 2026-04-16 09:35 | 35.68464 | -6.87013 | 37110 ft | 416 kts | 232° |
| 2026-04-16 09:35 | 35.64931 | -6.92633 | 37107 ft | 416 kts | 232° |
| 2026-04-16 09:36 | 35.61397 | -6.98242 | 37104 ft | 417 kts | 232° |
| 2026-04-16 09:36 | 35.57857 | -7.03850 | 37106 ft | 416 kts | 232° |
| 2026-04-16 09:37 | 35.54297 | -7.09484 | 37106 ft | 417 kts | 232° |
| 2026-04-16 09:37 | 35.50755 | -7.15078 | 37111 ft | 417 kts | 232° |
| 2026-04-16 09:38 | 35.47201 | -7.20681 | 37105 ft | 417 kts | 232° |
| 2026-04-16 09:38 | 35.43643 | -7.26284 | 37104 ft | 417 kts | 231° |
| 2026-04-16 09:39 | 35.40072 | -7.31898 | 37103 ft | 417 kts | 231° |
| 2026-04-16 09:39 | 35.36503 | -7.37499 | 37104 ft | 418 kts | 231° |
| 2026-04-16 09:40 | 35.32946 | -7.43073 | 37102 ft | 418 kts | 231° |
| 2026-04-16 09:40 | 35.29358 | -7.48686 | 37099 ft | 419 kts | 231° |
| 2026-04-16 09:41 | 35.25769 | -7.54291 | 37101 ft | 419 kts | 231° |
| 2026-04-16 09:41 | 35.22181 | -7.59885 | 37102 ft | 419 kts | 231° |
| 2026-04-16 09:42 | 35.18587 | -7.65480 | 37099 ft | 419 kts | 231° |
| 2026-04-16 09:42 | 35.15013 | -7.71061 | 37101 ft | 420 kts | 231° |
| 2026-04-16 09:43 | 35.11409 | -7.76673 | 37100 ft | 419 kts | 230° |
| 2026-04-16 09:43 | 35.07814 | -7.82252 | 37096 ft | 420 kts | 230° |
| 2026-04-16 09:44 | 35.04206 | -7.87836 | 37092 ft | 420 kts | 230° |
| 2026-04-16 09:44 | 35.00592 | -7.93418 | 37094 ft | 420 kts | 230° |
| 2026-04-16 09:45 | 34.96950 | -7.99032 | 37095 ft | 420 kts | 230° |
| 2026-04-16 09:45 | 34.93336 | -8.04595 | 37091 ft | 421 kts | 230° |
| 2026-04-16 09:46 | 34.89714 | -8.10161 | 37086 ft | 421 kts | 230° |
| 2026-04-16 09:46 | 34.86064 | -8.15722 | 37087 ft | 422 kts | 230° |
| 2026-04-16 09:47 | 34.82400 | -8.21311 | 37097 ft | 422 kts | 230° |
| 2026-04-16 09:47 | 34.78743 | -8.26896 | 37088 ft | 422 kts | 230° |
| 2026-04-16 09:48 | 34.75100 | -8.32461 | 37099 ft | 422 kts | 230° |
| 2026-04-16 09:48 | 34.71444 | -8.38034 | 37100 ft | 422 kts | 230° |
| 2026-04-16 09:49 | 34.67801 | -8.43580 | 37103 ft | 422 kts | 230° |
| 2026-04-16 09:49 | 34.64131 | -8.49158 | 37100 ft | 423 kts | 230° |
| 2026-04-16 09:50 | 34.60467 | -8.54719 | 37093 ft | 423 kts | 230° |
| 2026-04-16 09:50 | 34.56791 | -8.60291 | 37099 ft | 423 kts | 230° |
| 2026-04-16 09:51 | 34.53117 | -8.65850 | 37103 ft | 424 kts | 229° |
| 2026-04-16 09:51 | 34.49449 | -8.71415 | 37103 ft | 424 kts | 229° |
| 2026-04-16 09:52 | 34.45680 | -8.76864 | 37088 ft | 423 kts | 225° |
| 2026-04-16 09:52 | 34.41470 | -8.81785 | 37099 ft | 421 kts | 219° |
| 2026-04-16 09:53 | 34.36924 | -8.86217 | 37101 ft | 421 kts | 217° |
| 2026-04-16 09:53 | 34.32325 | -8.90630 | 37088 ft | 421 kts | 217° |
| 2026-04-16 09:54 | 34.27749 | -8.95016 | 37097 ft | 421 kts | 217° |
| 2026-04-16 09:54 | 34.23156 | -8.99414 | 37101 ft | 422 kts | 217° |
| 2026-04-16 09:55 | 34.18574 | -9.03797 | 37097 ft | 421 kts | 217° |
| 2026-04-16 09:55 | 34.13979 | -9.08186 | 37089 ft | 422 kts | 217° |
| 2026-04-16 09:56 | 34.09375 | -9.12576 | 37094 ft | 422 kts | 217° |
| 2026-04-16 09:56 | 34.04764 | -9.16968 | 37094 ft | 422 kts | 217° |
| 2026-04-16 09:57 | 34.00190 | -9.21319 | 37098 ft | 423 kts | 217° |
| 2026-04-16 09:57 | 33.95554 | -9.25721 | 37087 ft | 423 kts | 217° |
| 2026-04-16 09:58 | 33.90940 | -9.30096 | 37085 ft | 423 kts | 217° |
| 2026-04-16 09:58 | 33.86322 | -9.34454 | 37093 ft | 423 kts | 217° |
| 2026-04-16 09:59 | 33.81691 | -9.38812 | 37079 ft | 422 kts | 217° |
| 2026-04-16 09:59 | 33.77067 | -9.43172 | 37093 ft | 422 kts | 217° |
| 2026-04-16 10:00 | 33.72446 | -9.47527 | 37076 ft | 422 kts | 217° |
| 2026-04-16 10:00 | 33.67854 | -9.51849 | 37080 ft | 422 kts | 217° |
| 2026-04-16 10:01 | 33.60915 | -9.58372 | 37084 ft | 422 kts | 217° |
| 2026-04-16 10:01 | 33.56292 | -9.62712 | 37078 ft | 422 kts | 217° |
| 2026-04-16 10:02 | 33.51699 | -9.67023 | 37085 ft | 422 kts | 217° |
| 2026-04-16 10:02 | 33.47083 | -9.71370 | 37084 ft | 422 kts | 217° |
| 2026-04-16 10:03 | 33.42472 | -9.75691 | 37084 ft | 422 kts | 217° |
| 2026-04-16 10:03 | 33.37842 | -9.80015 | 37075 ft | 421 kts | 217° |
| 2026-04-16 10:04 | 33.33221 | -9.84322 | 37087 ft | 422 kts | 217° |
| 2026-04-16 10:04 | 33.28619 | -9.88605 | 37085 ft | 421 kts | 217° |
| 2026-04-16 10:05 | 33.23985 | -9.92910 | 37082 ft | 421 kts | 217° |
| 2026-04-16 10:05 | 33.19355 | -9.97205 | 37088 ft | 421 kts | 217° |
| 2026-04-16 10:06 | 33.14739 | -10.01481 | 37087 ft | 421 kts | 217° |
| 2026-04-16 10:06 | 33.10111 | -10.05760 | 37084 ft | 421 kts | 217° |
| 2026-04-16 10:07 | 33.05469 | -10.10046 | 37091 ft | 422 kts | 217° |
| 2026-04-16 10:07 | 33.00850 | -10.14307 | 37093 ft | 422 kts | 217° |
| 2026-04-16 10:08 | 32.96202 | -10.18597 | 37087 ft | 422 kts | 217° |
| 2026-04-16 10:08 | 32.91566 | -10.22865 | 37087 ft | 421 kts | 217° |
| 2026-04-16 10:09 | 32.86936 | -10.27105 | 37089 ft | 420 kts | 217° |
| 2026-04-16 10:09 | 32.84631 | -10.29206 | 36896 ft | 421 kts | 217° |
| 2026-04-16 10:09 | 32.82317 | -10.31316 | 37005 ft | 421 kts | 217° |
| 2026-04-16 10:10 | 32.77658 | -10.35572 | 37062 ft | 422 kts | 217° |
| 2026-04-16 10:10 | 32.73004 | -10.39824 | 37078 ft | 422 kts | 217° |
| 2026-04-16 10:11 | 32.68367 | -10.44057 | 37079 ft | 422 kts | 217° |
| 2026-04-16 10:11 | 32.63712 | -10.48300 | 37077 ft | 422 kts | 217° |
| 2026-04-16 10:12 | 32.59052 | -10.52543 | 37074 ft | 422 kts | 217° |
| 2026-04-16 10:12 | 32.54408 | -10.56765 | 37072 ft | 422 kts | 217° |
| 2026-04-16 10:13 | 32.49744 | -10.61001 | 37068 ft | 422 kts | 217° |
| 2026-04-16 10:13 | 32.45105 | -10.65208 | 37070 ft | 422 kts | 217° |
| 2026-04-16 10:14 | 32.40453 | -10.69447 | 37069 ft | 422 kts | 217° |
| 2026-04-16 10:14 | 32.35816 | -10.73659 | 37065 ft | 422 kts | 217° |
| 2026-04-16 10:15 | 32.31147 | -10.77883 | 37062 ft | 422 kts | 217° |
| 2026-04-16 10:15 | 32.26484 | -10.82091 | 37064 ft | 422 kts | 217° |
| 2026-04-16 10:16 | 32.21845 | -10.86270 | 37060 ft | 422 kts | 217° |
| 2026-04-16 10:16 | 32.17165 | -10.90480 | 37056 ft | 422 kts | 217° |
| 2026-04-16 10:17 | 32.12501 | -10.94669 | 37055 ft | 422 kts | 217° |
| 2026-04-16 10:17 | 32.07840 | -10.98850 | 37057 ft | 422 kts | 217° |
| 2026-04-16 10:18 | 32.03160 | -11.03042 | 37055 ft | 422 kts | 217° |
| 2026-04-16 10:18 | 31.98502 | -11.07211 | 37050 ft | 422 kts | 217° |
| 2026-04-16 10:19 | 31.93826 | -11.11389 | 37053 ft | 422 kts | 217° |
| 2026-04-16 10:19 | 31.89165 | -11.15546 | 37047 ft | 422 kts | 217° |
| 2026-04-16 10:20 | 31.84472 | -11.19703 | 37048 ft | 422 kts | 217° |
| 2026-04-16 10:20 | 31.79806 | -11.23844 | 37049 ft | 422 kts | 217° |
| 2026-04-16 10:21 | 31.75124 | -11.28005 | 37050 ft | 422 kts | 218° |
| 2026-04-16 10:21 | 31.70440 | -11.32184 | 37050 ft | 422 kts | 218° |
| 2026-04-16 10:22 | 31.65778 | -11.36341 | 37049 ft | 422 kts | 218° |
| 2026-04-16 10:22 | 31.61093 | -11.40514 | 37048 ft | 422 kts | 218° |
| 2026-04-16 10:23 | 31.56432 | -11.44660 | 37047 ft | 422 kts | 218° |
| 2026-04-16 10:23 | 31.51747 | -11.48819 | 37044 ft | 422 kts | 218° |
| 2026-04-16 10:24 | 31.47082 | -11.52956 | 37049 ft | 422 kts | 218° |
| 2026-04-16 10:24 | 31.42409 | -11.57096 | 37049 ft | 422 kts | 218° |
| 2026-04-16 10:25 | 31.37710 | -11.61251 | 37042 ft | 422 kts | 218° |
| 2026-04-16 10:25 | 31.33015 | -11.65398 | 37045 ft | 422 kts | 218° |
| 2026-04-16 10:26 | 31.28352 | -11.69538 | 37050 ft | 422 kts | 218° |
| 2026-04-16 10:26 | 31.23671 | -11.73678 | 37050 ft | 423 kts | 218° |
| 2026-04-16 10:27 | 31.18964 | -11.77828 | 37049 ft | 423 kts | 218° |
| 2026-04-16 10:27 | 31.14276 | -11.81949 | 37051 ft | 423 kts | 218° |
| 2026-04-16 10:28 | 31.09567 | -11.86082 | 37051 ft | 423 kts | 218° |
| 2026-04-16 10:28 | 31.04871 | -11.90199 | 37050 ft | 424 kts | 218° |
| 2026-04-16 10:29 | 31.00151 | -11.94331 | 37046 ft | 424 kts | 219° |
| 2026-04-16 10:29 | 30.95472 | -11.98420 | 37052 ft | 424 kts | 219° |
| 2026-04-16 10:30 | 30.90742 | -12.02550 | 37050 ft | 423 kts | 219° |
| 2026-04-16 10:30 | 30.86005 | -12.06664 | 37048 ft | 423 kts | 219° |
| 2026-04-16 10:31 | 30.81300 | -12.10744 | 37051 ft | 424 kts | 219° |
| 2026-04-16 10:31 | 30.76577 | -12.14845 | 37049 ft | 424 kts | 219° |
| 2026-04-16 10:32 | 30.71844 | -12.18956 | 37057 ft | 423 kts | 219° |
| 2026-04-16 10:32 | 30.67131 | -12.23046 | 37052 ft | 423 kts | 219° |
| 2026-04-16 10:33 | 30.62425 | -12.27124 | 37049 ft | 423 kts | 219° |
| 2026-04-16 10:33 | 30.57707 | -12.31204 | 37053 ft | 423 kts | 219° |
| 2026-04-16 10:34 | 30.53017 | -12.35258 | 37326 ft | 420 kts | 219° |
| 2026-04-16 10:34 | 30.50671 | -12.37284 | 37609 ft | 417 kts | 219° |
| 2026-04-16 10:34 | 30.48344 | -12.39289 | 37979 ft | 414 kts | 220° |
| 2026-04-16 10:35 | 30.43722 | -12.43266 | 38047 ft | 420 kts | 220° |
| 2026-04-16 10:35 | 30.38987 | -12.47335 | 38048 ft | 424 kts | 219° |
| 2026-04-16 10:36 | 30.34248 | -12.51397 | 38055 ft | 424 kts | 220° |
| 2026-04-16 10:36 | 30.29532 | -12.55435 | 38053 ft | 424 kts | 220° |
| 2026-04-16 10:37 | 30.24791 | -12.59488 | 38046 ft | 423 kts | 220° |
| 2026-04-16 10:37 | 30.20063 | -12.63530 | 38053 ft | 424 kts | 220° |
| 2026-04-16 10:38 | 30.15323 | -12.67585 | 38053 ft | 425 kts | 220° |
| 2026-04-16 10:38 | 30.10577 | -12.71648 | 38054 ft | 425 kts | 220° |
| 2026-04-16 10:39 | 30.05821 | -12.75728 | 38046 ft | 425 kts | 220° |
| 2026-04-16 10:39 | 30.01096 | -12.79778 | 38052 ft | 425 kts | 220° |
| 2026-04-16 10:40 | 29.96328 | -12.83850 | 38053 ft | 425 kts | 220° |
| 2026-04-16 10:40 | 29.91579 | -12.87899 | 38057 ft | 425 kts | 220° |
| 2026-04-16 10:41 | 29.86845 | -12.91915 | 38055 ft | 425 kts | 220° |
| 2026-04-16 10:41 | 29.82056 | -12.95965 | 38056 ft | 426 kts | 220° |
| 2026-04-16 10:42 | 29.77290 | -13.00001 | 38054 ft | 425 kts | 220° |
| 2026-04-16 10:42 | 29.72537 | -13.04032 | 38053 ft | 426 kts | 220° |
| 2026-04-16 10:43 | 29.67793 | -13.08049 | 38053 ft | 425 kts | 220° |
| 2026-04-16 10:43 | 29.63020 | -13.12087 | 38070 ft | 425 kts | 221° |
| 2026-04-16 10:44 | 29.58291 | -13.16085 | 38059 ft | 425 kts | 221° |
| 2026-04-16 10:44 | 29.53511 | -13.20119 | 38045 ft | 426 kts | 221° |
| 2026-04-16 10:45 | 29.48758 | -13.24127 | 38065 ft | 426 kts | 221° |
| 2026-04-16 10:45 | 29.43963 | -13.28163 | 38067 ft | 425 kts | 221° |
| 2026-04-16 10:46 | 29.39197 | -13.32173 | 38060 ft | 425 kts | 221° |
| 2026-04-16 10:46 | 29.34476 | -13.36138 | 38068 ft | 425 kts | 221° |
| 2026-04-16 10:47 | 29.29697 | -13.40148 | 38077 ft | 425 kts | 221° |
| 2026-04-16 10:47 | 29.24941 | -13.44132 | 38059 ft | 425 kts | 221° |
| 2026-04-16 10:48 | 29.20170 | -13.48123 | 38075 ft | 425 kts | 221° |
| 2026-04-16 10:48 | 29.15317 | -13.52026 | 38077 ft | 427 kts | 218° |
| 2026-04-16 10:49 | 29.10270 | -13.55642 | 38076 ft | 428 kts | 218° |
| 2026-04-16 10:49 | 29.05227 | -13.59242 | 38076 ft | 428 kts | 218° |
| 2026-04-16 10:50 | 29.00187 | -13.62837 | 38066 ft | 428 kts | 218° |
| 2026-04-16 10:50 | 28.95156 | -13.66423 | 38091 ft | 428 kts | 218° |
| 2026-04-16 10:51 | 28.90108 | -13.70042 | 38063 ft | 428 kts | 218° |
| 2026-04-16 10:51 | 28.85061 | -13.73624 | 38067 ft | 428 kts | 217° |
| 2026-04-16 10:52 | 28.79993 | -13.77208 | 38085 ft | 427 kts | 217° |
| 2026-04-16 10:52 | 28.74979 | -13.80760 | 38075 ft | 428 kts | 218° |
| 2026-04-16 10:53 | 28.69900 | -13.84353 | 38059 ft | 427 kts | 218° |
| 2026-04-16 10:53 | 28.64873 | -13.87909 | 38063 ft | 428 kts | 218° |
| 2026-04-16 10:54 | 28.59819 | -13.91478 | 38069 ft | 427 kts | 218° |
| 2026-04-16 10:54 | 28.54778 | -13.95037 | 38062 ft | 426 kts | 218° |
| 2026-04-16 10:55 | 28.49737 | -13.98589 | 38074 ft | 426 kts | 218° |
| 2026-04-16 10:55 | 28.44677 | -14.02153 | 38065 ft | 427 kts | 218° |
| 2026-04-16 10:56 | 28.39648 | -14.05690 | 38080 ft | 428 kts | 218° |
| 2026-04-16 10:56 | 28.34577 | -14.09252 | 38076 ft | 426 kts | 218° |
| 2026-04-16 10:57 | 28.29557 | -14.12775 | 38068 ft | 425 kts | 218° |
| 2026-04-16 10:57 | 28.24526 | -14.16301 | 38065 ft | 425 kts | 218° |
| 2026-04-16 10:58 | 28.19531 | -14.19798 | 38058 ft | 423 kts | 218° |
| 2026-04-16 10:58 | 28.14526 | -14.23299 | 38057 ft | 424 kts | 218° |
| 2026-04-16 10:59 | 28.09482 | -14.26824 | 38058 ft | 424 kts | 218° |
| 2026-04-16 10:59 | 28.04473 | -14.30319 | 38054 ft | 424 kts | 218° |
| 2026-04-16 11:00 | 27.99465 | -14.33809 | 38060 ft | 422 kts | 218° |
| 2026-04-16 11:00 | 27.94494 | -14.37273 | 38054 ft | 422 kts | 218° |
| 2026-04-16 11:01 | 27.89495 | -14.40748 | 38063 ft | 421 kts | 218° |
| 2026-04-16 11:01 | 27.84494 | -14.44202 | 38060 ft | 422 kts | 218° |
| 2026-04-16 11:02 | 27.79503 | -14.47649 | 38063 ft | 422 kts | 218° |
| 2026-04-16 11:02 | 27.74485 | -14.51123 | 38060 ft | 421 kts | 219° |
| 2026-04-16 11:03 | 27.69525 | -14.54555 | 38048 ft | 420 kts | 219° |
| 2026-04-16 11:04 | 27.62075 | -14.59707 | 38057 ft | 419 kts | 219° |
| 2026-04-16 11:04 | 27.57116 | -14.63131 | 38049 ft | 418 kts | 219° |
| 2026-04-16 11:05 | 27.52144 | -14.66570 | 38054 ft | 418 kts | 218° |
| 2026-04-16 11:05 | 27.47209 | -14.69996 | 38051 ft | 418 kts | 218° |
| 2026-04-16 11:06 | 27.42228 | -14.73436 | 38055 ft | 417 kts | 218° |
| 2026-04-16 11:06 | 27.37298 | -14.76829 | 38053 ft | 416 kts | 218° |
| 2026-04-16 11:07 | 27.32339 | -14.80236 | 38052 ft | 417 kts | 218° |
| 2026-04-16 11:07 | 27.27393 | -14.83631 | 38057 ft | 415 kts | 218° |
| 2026-04-16 11:08 | 27.22477 | -14.87000 | 38051 ft | 415 kts | 218° |
| 2026-04-16 11:08 | 27.17544 | -14.90379 | 38053 ft | 416 kts | 218° |
| 2026-04-16 11:09 | 27.12600 | -14.93759 | 38055 ft | 415 kts | 218° |
| 2026-04-16 11:09 | 27.07669 | -14.97127 | 38059 ft | 415 kts | 218° |
| 2026-04-16 11:10 | 27.02746 | -15.00487 | 38052 ft | 414 kts | 218° |
| 2026-04-16 11:10 | 26.97835 | -15.03836 | 38049 ft | 413 kts | 218° |
| 2026-04-16 11:11 | 26.92933 | -15.07173 | 38048 ft | 412 kts | 218° |
| 2026-04-16 11:11 | 26.88037 | -15.10496 | 38045 ft | 411 kts | 218° |
| 2026-04-16 11:12 | 26.83157 | -15.13791 | 38043 ft | 412 kts | 218° |
| 2026-04-16 11:12 | 26.78262 | -15.17108 | 38046 ft | 411 kts | 218° |
| 2026-04-16 11:13 | 26.73354 | -15.20433 | 38040 ft | 411 kts | 218° |
| 2026-04-16 11:13 | 26.68488 | -15.23734 | 38044 ft | 410 kts | 218° |
| 2026-04-16 11:14 | 26.63596 | -15.27049 | 38044 ft | 410 kts | 218° |
| 2026-04-16 11:14 | 26.58732 | -15.30341 | 38038 ft | 409 kts | 218° |
| 2026-04-16 11:15 | 26.53866 | -15.33629 | 38040 ft | 408 kts | 218° |
| 2026-04-16 11:15 | 26.49038 | -15.36889 | 38034 ft | 408 kts | 218° |
| 2026-04-16 11:16 | 26.44168 | -15.40172 | 38033 ft | 408 kts | 218° |
| 2026-04-16 11:16 | 26.39308 | -15.43446 | 38037 ft | 407 kts | 218° |
| 2026-04-16 11:17 | 26.34489 | -15.46688 | 38035 ft | 407 kts | 218° |
| 2026-04-16 11:17 | 26.29636 | -15.49953 | 38040 ft | 406 kts | 218° |
| 2026-04-16 11:18 | 26.24801 | -15.53201 | 38036 ft | 406 kts | 218° |
| 2026-04-16 11:18 | 26.19961 | -15.56448 | 38034 ft | 405 kts | 218° |
| 2026-04-16 11:19 | 26.15138 | -15.59679 | 38035 ft | 404 kts | 218° |
| 2026-04-16 11:19 | 26.10320 | -15.62907 | 38032 ft | 405 kts | 218° |
| 2026-04-16 11:20 | 26.05507 | -15.66132 | 38033 ft | 404 kts | 217° |
| 2026-04-16 11:20 | 26.00699 | -15.69371 | 38032 ft | 403 kts | 217° |
| 2026-04-16 11:21 | 25.95923 | -15.72573 | 38033 ft | 402 kts | 217° |
| 2026-04-16 11:21 | 25.91138 | -15.75770 | 38034 ft | 402 kts | 217° |
| 2026-04-16 11:22 | 25.86327 | -15.78965 | 38031 ft | 403 kts | 217° |
| 2026-04-16 11:22 | 25.81489 | -15.82170 | 38027 ft | 403 kts | 217° |
| 2026-04-16 11:23 | 25.76703 | -15.85344 | 38027 ft | 403 kts | 217° |
| 2026-04-16 11:23 | 25.71886 | -15.88543 | 38025 ft | 403 kts | 217° |
| 2026-04-16 11:24 | 25.67071 | -15.91740 | 38026 ft | 403 kts | 217° |
| 2026-04-16 11:24 | 25.62274 | -15.94920 | 38024 ft | 402 kts | 217° |
| 2026-04-16 11:25 | 25.57475 | -15.98100 | 38026 ft | 403 kts | 217° |
| 2026-04-16 11:25 | 25.52671 | -16.01281 | 38026 ft | 403 kts | 217° |
| 2026-04-16 11:26 | 25.47848 | -16.04469 | 38022 ft | 404 kts | 217° |
| 2026-04-16 11:26 | 25.43036 | -16.07651 | 38025 ft | 403 kts | 216° |
| 2026-04-16 11:27 | 25.38221 | -16.10829 | 38023 ft | 403 kts | 216° |
| 2026-04-16 11:27 | 25.33380 | -16.14020 | 38018 ft | 403 kts | 216° |
| 2026-04-16 11:28 | 25.28573 | -16.17186 | 38018 ft | 403 kts | 216° |
| 2026-04-16 11:28 | 25.23773 | -16.20344 | 38018 ft | 404 kts | 216° |
| 2026-04-16 11:29 | 25.18939 | -16.23523 | 38017 ft | 403 kts | 216° |
| 2026-04-16 11:29 | 25.14108 | -16.26696 | 38014 ft | 404 kts | 216° |
| 2026-04-16 11:30 | 25.09273 | -16.29866 | 38014 ft | 404 kts | 216° |
| 2026-04-16 11:30 | 25.04441 | -16.33034 | 38012 ft | 404 kts | 216° |
| 2026-04-16 11:31 | 24.99701 | -16.36137 | 38012 ft | 404 kts | 216° |
| 2026-04-16 11:31 | 24.94890 | -16.39293 | 38010 ft | 403 kts | 216° |
| 2026-04-16 11:32 | 24.90040 | -16.42470 | 38006 ft | 403 kts | 216° |
| 2026-04-16 11:32 | 24.85211 | -16.45610 | 38007 ft | 403 kts | 216° |
| 2026-04-16 11:33 | 24.80390 | -16.48742 | 38006 ft | 403 kts | 216° |
| 2026-04-16 11:33 | 24.75550 | -16.51893 | 38002 ft | 403 kts | 216° |
| 2026-04-16 11:34 | 24.70742 | -16.55024 | 38005 ft | 403 kts | 216° |
| 2026-04-16 11:34 | 24.65900 | -16.58173 | 38004 ft | 403 kts | 216° |
| 2026-04-16 11:35 | 24.61070 | -16.61313 | 38000 ft | 403 kts | 216° |
| 2026-04-16 11:35 | 24.56263 | -16.64437 | 38000 ft | 403 kts | 216° |
| 2026-04-16 11:36 | 24.51450 | -16.67578 | 38002 ft | 403 kts | 216° |
| 2026-04-16 11:36 | 24.46619 | -16.70733 | 38001 ft | 402 kts | 215° |
| 2026-04-16 11:37 | 24.41818 | -16.73853 | 38000 ft | 402 kts | 215° |
| 2026-04-16 11:37 | 24.36985 | -16.76985 | 38001 ft | 403 kts | 215° |
| 2026-04-16 11:38 | 24.32158 | -16.80109 | 37994 ft | 404 kts | 215° |
| 2026-04-16 11:38 | 24.27329 | -16.83231 | 37994 ft | 404 kts | 215° |
| 2026-04-16 11:39 | 24.22496 | -16.86351 | 37995 ft | 403 kts | 215° |
| 2026-04-16 11:39 | 24.17669 | -16.89463 | 37991 ft | 403 kts | 215° |
| 2026-04-16 11:40 | 24.12852 | -16.92570 | 37993 ft | 403 kts | 215° |
| 2026-04-16 11:40 | 24.08003 | -16.95692 | 37992 ft | 404 kts | 215° |
| 2026-04-16 11:41 | 24.03145 | -16.98817 | 37989 ft | 404 kts | 215° |
| 2026-04-16 11:41 | 23.98297 | -17.01933 | 37992 ft | 404 kts | 215° |
| 2026-04-16 11:42 | 23.93451 | -17.05044 | 37986 ft | 405 kts | 215° |
| 2026-04-16 11:42 | 23.88600 | -17.08156 | 37988 ft | 404 kts | 215° |
| 2026-04-16 11:43 | 23.83743 | -17.11249 | 37991 ft | 404 kts | 215° |
| 2026-04-16 11:43 | 23.78906 | -17.14337 | 37990 ft | 404 kts | 215° |
| 2026-04-16 11:44 | 23.74039 | -17.17446 | 37984 ft | 404 kts | 215° |
| 2026-04-16 11:44 | 23.69182 | -17.20549 | 37984 ft | 404 kts | 215° |
| 2026-04-16 11:45 | 23.64353 | -17.23634 | 37989 ft | 404 kts | 215° |
| 2026-04-16 11:45 | 23.59502 | -17.26730 | 37982 ft | 404 kts | 215° |
| 2026-04-16 11:46 | 23.54650 | -17.29824 | 37990 ft | 403 kts | 215° |
| 2026-04-16 11:46 | 23.49821 | -17.32901 | 37986 ft | 403 kts | 215° |
| 2026-04-16 11:47 | 23.44958 | -17.35997 | 37982 ft | 403 kts | 215° |
| 2026-04-16 11:47 | 23.40116 | -17.39077 | 37982 ft | 404 kts | 215° |
| 2026-04-16 11:48 | 23.35269 | -17.42158 | 37980 ft | 403 kts | 215° |
| 2026-04-16 11:48 | 23.30429 | -17.45231 | 37990 ft | 403 kts | 215° |
| 2026-04-16 11:49 | 23.25592 | -17.48302 | 37978 ft | 403 kts | 215° |
| 2026-04-16 11:49 | 23.20739 | -17.51376 | 37978 ft | 403 kts | 215° |
| 2026-04-16 11:50 | 23.15908 | -17.54436 | 37982 ft | 403 kts | 215° |
| 2026-04-16 11:50 | 23.11063 | -17.57503 | 37987 ft | 403 kts | 216° |
| 2026-04-16 11:51 | 23.06211 | -17.60570 | 37981 ft | 403 kts | 216° |
| 2026-04-16 11:51 | 23.01345 | -17.63645 | 37973 ft | 403 kts | 216° |
| 2026-04-16 11:52 | 22.96514 | -17.66706 | 37967 ft | 403 kts | 215° |
| 2026-04-16 11:52 | 22.91676 | -17.69781 | 37969 ft | 402 kts | 215° |
| 2026-04-16 11:53 | 22.86840 | -17.72830 | 37967 ft | 403 kts | 215° |
| 2026-04-16 11:53 | 22.81990 | -17.75871 | 37967 ft | 403 kts | 215° |
| 2026-04-16 11:54 | 22.77123 | -17.78925 | 37957 ft | 404 kts | 216° |
| 2026-04-16 11:54 | 22.72259 | -17.81981 | 37971 ft | 404 kts | 215° |
| 2026-04-16 11:55 | 22.67400 | -17.85034 | 37963 ft | 404 kts | 216° |
| 2026-04-16 11:55 | 22.62524 | -17.88092 | 37955 ft | 404 kts | 216° |
| 2026-04-16 11:56 | 22.57653 | -17.91147 | 37965 ft | 404 kts | 216° |
| 2026-04-16 11:56 | 22.52807 | -17.94184 | 37964 ft | 403 kts | 216° |
| 2026-04-16 11:57 | 22.47964 | -17.97215 | 37959 ft | 403 kts | 216° |
| 2026-04-16 11:57 | 22.43100 | -18.00258 | 37957 ft | 403 kts | 216° |
| 2026-04-16 11:58 | 22.38247 | -18.03291 | 37954 ft | 404 kts | 216° |
| 2026-04-16 11:58 | 22.33364 | -18.06342 | 37954 ft | 404 kts | 216° |
| 2026-04-16 11:59 | 22.28479 | -18.09389 | 37955 ft | 404 kts | 216° |
| 2026-04-16 11:59 | 22.23626 | -18.12415 | 37953 ft | 404 kts | 216° |
| 2026-04-16 12:00 | 22.18769 | -18.15442 | 37950 ft | 403 kts | 216° |
| 2026-04-16 12:00 | 22.13898 | -18.18473 | 37951 ft | 402 kts | 216° |
| 2026-04-16 12:01 | 22.09034 | -18.21497 | 37948 ft | 403 kts | 216° |
| 2026-04-16 12:01 | 22.04175 | -18.24519 | 37950 ft | 403 kts | 216° |
| 2026-04-16 12:02 | 21.96897 | -18.29037 | 37942 ft | 404 kts | 216° |
| 2026-04-16 12:02 | 21.92031 | -18.32054 | 37955 ft | 402 kts | 216° |
| 2026-04-16 12:03 | 21.87179 | -18.35052 | 37967 ft | 401 kts | 216° |
| 2026-04-16 12:03 | 21.82332 | -18.38036 | 37968 ft | 401 kts | 217° |
| 2026-04-16 12:04 | 21.77455 | -18.41051 | 37970 ft | 408 kts | 217° |
| 2026-04-16 12:04 | 21.72493 | -18.44118 | 37969 ft | 414 kts | 217° |
| 2026-04-16 12:05 | 21.67487 | -18.47210 | 37967 ft | 418 kts | 217° |
| 2026-04-16 12:05 | 21.62412 | -18.50341 | 37965 ft | 422 kts | 217° |
| 2026-04-16 12:06 | 21.57285 | -18.53501 | 37969 ft | 424 kts | 217° |
| 2026-04-16 12:06 | 21.52185 | -18.56641 | 37958 ft | 425 kts | 217° |
| 2026-04-16 12:07 | 21.47034 | -18.59815 | 37950 ft | 425 kts | 217° |
| 2026-04-16 12:07 | 21.41924 | -18.62957 | 37946 ft | 425 kts | 217° |
| 2026-04-16 12:08 | 21.36765 | -18.66133 | 37951 ft | 424 kts | 217° |
| 2026-04-16 12:08 | 21.31656 | -18.69295 | 37944 ft | 425 kts | 217° |
| 2026-04-16 12:09 | 21.26545 | -18.72445 | 37942 ft | 425 kts | 217° |
| 2026-04-16 12:09 | 21.21431 | -18.75588 | 37944 ft | 425 kts | 217° |
| 2026-04-16 12:10 | 21.16292 | -18.78740 | 37946 ft | 425 kts | 217° |
| 2026-04-16 12:10 | 21.11153 | -18.81886 | 37944 ft | 424 kts | 217° |
| 2026-04-16 12:11 | 21.06011 | -18.85034 | 37945 ft | 424 kts | 217° |
| 2026-04-16 12:11 | 21.00911 | -18.88149 | 37946 ft | 424 kts | 218° |
| 2026-04-16 12:12 | 20.95768 | -18.91290 | 37944 ft | 424 kts | 218° |
| 2026-04-16 12:12 | 20.90642 | -18.94417 | 37947 ft | 424 kts | 218° |
| 2026-04-16 12:13 | 20.85541 | -18.97511 | 37948 ft | 423 kts | 218° |
| 2026-04-16 12:13 | 20.80389 | -19.00634 | 37950 ft | 422 kts | 218° |
| 2026-04-16 12:14 | 20.75280 | -19.03737 | 37947 ft | 423 kts | 218° |
| 2026-04-16 12:14 | 20.70167 | -19.06845 | 37949 ft | 423 kts | 218° |
| 2026-04-16 12:15 | 20.65062 | -19.09945 | 37947 ft | 422 kts | 218° |
| 2026-04-16 12:15 | 20.59944 | -19.13053 | 37948 ft | 424 kts | 218° |
| 2026-04-16 12:16 | 20.54826 | -19.16159 | 37950 ft | 424 kts | 218° |
| 2026-04-16 12:16 | 20.49667 | -19.19287 | 37950 ft | 425 kts | 218° |
| 2026-04-16 12:17 | 20.44521 | -19.22404 | 37952 ft | 424 kts | 219° |
| 2026-04-16 12:17 | 20.39410 | -19.25501 | 37954 ft | 423 kts | 218° |
| 2026-04-16 12:18 | 20.34277 | -19.28604 | 37957 ft | 423 kts | 218° |
| 2026-04-16 12:18 | 20.29144 | -19.31706 | 37956 ft | 423 kts | 219° |
| 2026-04-16 12:19 | 20.24001 | -19.34812 | 37960 ft | 426 kts | 219° |
| 2026-04-16 12:19 | 20.18828 | -19.37936 | 37958 ft | 424 kts | 219° |
| 2026-04-16 12:20 | 20.13685 | -19.41035 | 37954 ft | 424 kts | 219° |
| 2026-04-16 12:20 | 20.08553 | -19.44127 | 37958 ft | 424 kts | 219° |
| 2026-04-16 12:21 | 20.03431 | -19.47213 | 37959 ft | 424 kts | 219° |
| 2026-04-16 12:21 | 19.98279 | -19.50314 | 37958 ft | 424 kts | 219° |
| 2026-04-16 12:22 | 19.93150 | -19.53395 | 37955 ft | 425 kts | 219° |
| 2026-04-16 12:22 | 19.88000 | -19.56485 | 37961 ft | 425 kts | 219° |
| 2026-04-16 12:23 | 19.82843 | -19.59561 | 37954 ft | 425 kts | 219° |
| 2026-04-16 12:23 | 19.77686 | -19.62645 | 37957 ft | 426 kts | 219° |
| 2026-04-16 12:24 | 19.72526 | -19.65740 | 37957 ft | 425 kts | 219° |
| 2026-04-16 12:24 | 19.67348 | -19.68864 | 37949 ft | 426 kts | 220° |
| 2026-04-16 12:25 | 19.62413 | -19.72213 | 37950 ft | 419 kts | 225° |
| 2026-04-16 12:25 | 19.57881 | -19.76017 | 37946 ft | 410 kts | 230° |
| 2026-04-16 12:26 | 19.53826 | -19.80175 | 37944 ft | 406 kts | 235° |
| 2026-04-16 12:26 | 19.49988 | -19.84587 | 37946 ft | 406 kts | 236° |
| 2026-04-16 12:27 | 19.46154 | -19.88994 | 37953 ft | 405 kts | 236° |
| 2026-04-16 12:27 | 19.42356 | -19.93360 | 37951 ft | 405 kts | 236° |
| 2026-04-16 12:28 | 19.38533 | -19.97761 | 37948 ft | 405 kts | 236° |
| 2026-04-16 12:28 | 19.34708 | -20.02157 | 37949 ft | 406 kts | 236° |
| 2026-04-16 12:29 | 19.30899 | -20.06531 | 37947 ft | 405 kts | 236° |
| 2026-04-16 12:29 | 19.27087 | -20.10905 | 37949 ft | 406 kts | 236° |
| 2026-04-16 12:30 | 19.23237 | -20.15324 | 37950 ft | 407 kts | 236° |
| 2026-04-16 12:30 | 19.19403 | -20.19718 | 37946 ft | 406 kts | 236° |
| 2026-04-16 12:31 | 19.15594 | -20.24083 | 37948 ft | 406 kts | 236° |
| 2026-04-16 12:31 | 19.11759 | -20.28468 | 37948 ft | 407 kts | 236° |
| 2026-04-16 12:32 | 19.07934 | -20.32847 | 37947 ft | 406 kts | 236° |
| 2026-04-16 12:32 | 19.04092 | -20.37237 | 37946 ft | 408 kts | 237° |
| 2026-04-16 12:33 | 19.00249 | -20.41628 | 37947 ft | 406 kts | 236° |
| 2026-04-16 12:33 | 18.96420 | -20.45999 | 37949 ft | 407 kts | 236° |
| 2026-04-16 12:34 | 18.92579 | -20.50380 | 37948 ft | 406 kts | 236° |
| 2026-04-16 12:34 | 18.88734 | -20.54755 | 37942 ft | 407 kts | 236° |
| 2026-04-16 12:35 | 18.84882 | -20.59107 | 37944 ft | 406 kts | 236° |
| 2026-04-16 12:35 | 18.81020 | -20.63481 | 37946 ft | 407 kts | 236° |
| 2026-04-16 12:36 | 18.77171 | -20.67861 | 37945 ft | 407 kts | 236° |
| 2026-04-16 12:36 | 18.73322 | -20.72254 | 37947 ft | 407 kts | 236° |
| 2026-04-16 12:37 | 18.69495 | -20.76606 | 37945 ft | 407 kts | 236° |
| 2026-04-16 12:37 | 18.65646 | -20.80978 | 37946 ft | 407 kts | 236° |
| 2026-04-16 12:38 | 18.61783 | -20.85360 | 37945 ft | 407 kts | 236° |
| 2026-04-16 12:38 | 18.57948 | -20.89705 | 37946 ft | 407 kts | 236° |
| 2026-04-16 12:39 | 18.54070 | -20.94098 | 37948 ft | 408 kts | 236° |
| 2026-04-16 12:39 | 18.50217 | -20.98458 | 37946 ft | 408 kts | 236° |
| 2026-04-16 12:40 | 18.46337 | -21.02844 | 37950 ft | 407 kts | 236° |
| 2026-04-16 12:40 | 18.42494 | -21.07183 | 37949 ft | 408 kts | 236° |
| 2026-04-16 12:41 | 18.38633 | -21.11544 | 37950 ft | 409 kts | 236° |
| 2026-04-16 12:41 | 18.34730 | -21.15947 | 37954 ft | 410 kts | 236° |
| 2026-04-16 12:42 | 18.30854 | -21.20318 | 37955 ft | 410 kts | 236° |
| 2026-04-16 12:42 | 18.26981 | -21.24681 | 37957 ft | 410 kts | 236° |
| 2026-04-16 12:43 | 18.23076 | -21.29077 | 37955 ft | 410 kts | 236° |
| 2026-04-16 12:43 | 18.19181 | -21.33461 | 37955 ft | 410 kts | 236° |
| 2026-04-16 12:44 | 18.15275 | -21.37851 | 37955 ft | 411 kts | 236° |
| 2026-04-16 12:44 | 18.11387 | -21.42219 | 37949 ft | 412 kts | 236° |
| 2026-04-16 12:45 | 18.07464 | -21.46623 | 37949 ft | 412 kts | 236° |
| 2026-04-16 12:45 | 18.03553 | -21.51010 | 37954 ft | 412 kts | 236° |
| 2026-04-16 12:46 | 18.01591 | -21.53209 | 37833 ft | 414 kts | 236° |
| 2026-04-16 12:46 | 17.99645 | -21.55391 | 37486 ft | 413 kts | 236° |
| 2026-04-16 12:46 | 17.97695 | -21.57576 | 37036 ft | 409 kts | 236° |
| 2026-04-16 12:46 | 17.95757 | -21.59744 | 36436 ft | 406 kts | 236° |
| 2026-04-16 12:47 | 17.93828 | -21.61905 | 35776 ft | 404 kts | 235° |
| 2026-04-16 12:47 | 17.91902 | -21.64060 | 35096 ft | 404 kts | 235° |
| 2026-04-16 12:47 | 17.89994 | -21.66199 | 34412 ft | 404 kts | 235° |
| 2026-04-16 12:47 | 17.88063 | -21.68361 | 33711 ft | 404 kts | 234° |
| 2026-04-16 12:48 | 17.86154 | -21.70489 | 33032 ft | 407 kts | 234° |
| 2026-04-16 12:48 | 17.84198 | -21.72673 | 32445 ft | 407 kts | 234° |
| 2026-04-16 12:48 | 17.82282 | -21.74809 | 32097 ft | 406 kts | 233° |
| 2026-04-16 12:48 | 17.80344 | -21.76969 | 31723 ft | 403 kts | 233° |
| 2026-04-16 12:49 | 17.78418 | -21.79115 | 31347 ft | 401 kts | 233° |
| 2026-04-16 12:49 | 17.76526 | -21.81224 | 30975 ft | 398 kts | 233° |
| 2026-04-16 12:49 | 17.74651 | -21.83314 | 30610 ft | 395 kts | 233° |
| 2026-04-16 12:49 | 17.72755 | -21.85429 | 30231 ft | 393 kts | 232° |
| 2026-04-16 12:50 | 17.70904 | -21.87492 | 29862 ft | 390 kts | 232° |
| 2026-04-16 12:50 | 17.69060 | -21.89546 | 29488 ft | 387 kts | 232° |
| 2026-04-16 12:50 | 17.67200 | -21.91617 | 29123 ft | 384 kts | 231° |
| 2026-04-16 12:50 | 17.65406 | -21.93636 | 28755 ft | 381 kts | 233° |
| 2026-04-16 12:51 | 17.63678 | -21.95745 | 28368 ft | 378 kts | 234° |
| 2026-04-16 12:51 | 17.62003 | -21.97827 | 28000 ft | 374 kts | 234° |
| 2026-04-16 12:51 | 17.60322 | -21.99914 | 27643 ft | 370 kts | 234° |
| 2026-04-16 12:51 | 17.58680 | -22.01952 | 27304 ft | 367 kts | 234° |
| 2026-04-16 12:52 | 17.57054 | -22.03971 | 26929 ft | 364 kts | 234° |
| 2026-04-16 12:52 | 17.55419 | -22.05999 | 26514 ft | 362 kts | 233° |
| 2026-04-16 12:52 | 17.53800 | -22.08009 | 26080 ft | 360 kts | 234° |
| 2026-04-16 12:52 | 17.52183 | -22.10016 | 25641 ft | 358 kts | 233° |
| 2026-04-16 12:53 | 17.50602 | -22.11979 | 25215 ft | 357 kts | 233° |
| 2026-04-16 12:53 | 17.48995 | -22.13974 | 24775 ft | 356 kts | 233° |
| 2026-04-16 12:53 | 17.47399 | -22.15952 | 24337 ft | 355 kts | 233° |
| 2026-04-16 12:53 | 17.45806 | -22.17927 | 23903 ft | 354 kts | 232° |
| 2026-04-16 12:54 | 17.44222 | -22.19888 | 23475 ft | 353 kts | 232° |
| 2026-04-16 12:54 | 17.42635 | -22.21855 | 23033 ft | 354 kts | 232° |
| 2026-04-16 12:54 | 17.41054 | -22.23812 | 22604 ft | 353 kts | 232° |
| 2026-04-16 12:54 | 17.39474 | -22.25765 | 22177 ft | 353 kts | 232° |
| 2026-04-16 12:55 | 17.37882 | -22.27730 | 21761 ft | 352 kts | 232° |
| 2026-04-16 12:55 | 17.36309 | -22.29676 | 21349 ft | 351 kts | 232° |
| 2026-04-16 12:55 | 17.34748 | -22.31606 | 20940 ft | 350 kts | 231° |
| 2026-04-16 12:55 | 17.33164 | -22.33565 | 20524 ft | 349 kts | 231° |
| 2026-04-16 12:56 | 17.31612 | -22.35482 | 20115 ft | 347 kts | 231° |
| 2026-04-16 12:56 | 17.30057 | -22.37401 | 19711 ft | 345 kts | 231° |
| 2026-04-16 12:56 | 17.28495 | -22.39330 | 19297 ft | 344 kts | 231° |
| 2026-04-16 12:56 | 17.26959 | -22.41226 | 18891 ft | 342 kts | 231° |
| 2026-04-16 12:57 | 17.25429 | -22.43114 | 18482 ft | 341 kts | 231° |
| 2026-04-16 12:57 | 17.23906 | -22.44992 | 18081 ft | 339 kts | 231° |
| 2026-04-16 12:57 | 17.22370 | -22.46888 | 17671 ft | 337 kts | 231° |
| 2026-04-16 12:57 | 17.20864 | -22.48746 | 17274 ft | 335 kts | 231° |
| 2026-04-16 12:58 | 17.19377 | -22.50581 | 16880 ft | 334 kts | 231° |
| 2026-04-16 12:58 | 17.17881 | -22.52424 | 16484 ft | 332 kts | 230° |
| 2026-04-16 12:58 | 17.16375 | -22.54280 | 16080 ft | 330 kts | 230° |
| 2026-04-16 12:58 | 17.14897 | -22.56100 | 15684 ft | 328 kts | 230° |
| 2026-04-16 12:59 | 17.13440 | -22.57894 | 15292 ft | 326 kts | 230° |
| 2026-04-16 12:59 | 17.11971 | -22.59702 | 14904 ft | 324 kts | 230° |
| 2026-04-16 12:59 | 17.10527 | -22.61479 | 14533 ft | 322 kts | 230° |
| 2026-04-16 13:00 | 17.07638 | -22.65032 | 13777 ft | 317 kts | 229° |
| 2026-04-16 13:00 | 17.06227 | -22.66777 | 13408 ft | 315 kts | 229° |
| 2026-04-16 13:00 | 17.04828 | -22.68507 | 13049 ft | 313 kts | 230° |
| 2026-04-16 13:00 | 17.03417 | -22.70246 | 12684 ft | 311 kts | 230° |
| 2026-04-16 13:01 | 17.02025 | -22.71958 | 12325 ft | 309 kts | 230° |
| 2026-04-16 13:01 | 17.00635 | -22.73666 | 11960 ft | 307 kts | 230° |
| 2026-04-16 13:01 | 16.99256 | -22.75361 | 11587 ft | 306 kts | 230° |
| 2026-04-16 13:01 | 16.97883 | -22.77044 | 11219 ft | 305 kts | 230° |
| 2026-04-16 13:02 | 16.96508 | -22.78730 | 10836 ft | 304 kts | 230° |
| 2026-04-16 13:02 | 16.95147 | -22.80399 | 10457 ft | 303 kts | 231° |
| 2026-04-16 13:02 | 16.93774 | -22.82085 | 10145 ft | 299 kts | 231° |
| 2026-04-16 13:02 | 16.92416 | -22.83648 | 10076 ft | 286 kts | 221° |
| 2026-04-16 13:03 | 16.90684 | -22.84584 | 9978 ft | 278 kts | 195° |
| 2026-04-16 13:03 | 16.88758 | -22.84752 | 9702 ft | 279 kts | 181° |
| 2026-04-16 13:03 | 16.86810 | -22.84708 | 9369 ft | 279 kts | 180° |
| 2026-04-16 13:03 | 16.84863 | -22.84658 | 9069 ft | 277 kts | 181° |
| 2026-04-16 13:04 | 16.82974 | -22.84624 | 8946 ft | 268 kts | 181° |
| 2026-04-16 13:04 | 16.81087 | -22.84605 | 8595 ft | 269 kts | 181° |
| 2026-04-16 13:04 | 16.79204 | -22.84590 | 8241 ft | 269 kts | 181° |
| 2026-04-16 13:04 | 16.77339 | -22.84577 | 7910 ft | 268 kts | 181° |
| 2026-04-16 13:05 | 16.75472 | -22.84563 | 7584 ft | 268 kts | 181° |
| 2026-04-16 13:05 | 16.73596 | -22.84550 | 7255 ft | 267 kts | 180° |
| 2026-04-16 13:05 | 16.71751 | -22.84537 | 6922 ft | 267 kts | 180° |
| 2026-04-16 13:05 | 16.69880 | -22.84523 | 6581 ft | 266 kts | 180° |
| 2026-04-16 13:06 | 16.68046 | -22.84509 | 6257 ft | 265 kts | 180° |
| 2026-04-16 13:06 | 16.66186 | -22.84494 | 5938 ft | 264 kts | 179° |
| 2026-04-16 13:06 | 16.64353 | -22.84480 | 5628 ft | 263 kts | 179° |
| 2026-04-16 13:06 | 16.62531 | -22.84466 | 5295 ft | 263 kts | 179° |
| 2026-04-16 13:07 | 16.60690 | -22.84453 | 4961 ft | 262 kts | 179° |
| 2026-04-16 13:07 | 16.58859 | -22.84441 | 4648 ft | 261 kts | 178° |
| 2026-04-16 13:07 | 16.57041 | -22.84481 | 4293 ft | 263 kts | 188° |
| 2026-04-16 13:07 | 16.55407 | -22.85249 | 3910 ft | 263 kts | 225° |
| 2026-04-16 13:08 | 16.54535 | -22.86849 | 3630 ft | 248 kts | 264° |
| 2026-04-16 13:08 | 16.54553 | -22.88587 | 3434 ft | 237 kts | 277° |
| 2026-04-16 13:08 | 16.54666 | -22.90294 | 3187 ft | 234 kts | 275° |
| 2026-04-16 13:08 | 16.54724 | -22.91961 | 2943 ft | 230 kts | 274° |
| 2026-04-16 13:09 | 16.55000 | -22.93569 | 2651 ft | 223 kts | 304° |
| 2026-04-16 13:09 | 16.56052 | -22.94622 | 2570 ft | 199 kts | 340° |
| 2026-04-16 13:09 | 16.57359 | -22.94902 | 2565 ft | 192 kts | 3° |
| 2026-04-16 13:09 | 16.58698 | -22.94866 | 2552 ft | 190 kts | 5° |
| 2026-04-16 13:10 | 16.60013 | -22.94825 | 2536 ft | 183 kts | 4° |
| 2026-04-16 13:10 | 16.61270 | -22.94815 | 2304 ft | 179 kts | 3° |
| 2026-04-16 13:10 | 16.62509 | -22.94825 | 2072 ft | 176 kts | 3° |
| 2026-04-16 13:10 | 16.63712 | -22.94840 | 1841 ft | 170 kts | 3° |
| 2026-04-16 13:11 | 16.64880 | -22.94853 | 1623 ft | 164 kts | 4° |
| 2026-04-16 13:11 | 16.65996 | -22.94863 | 1414 ft | 152 kts | 4° |
| 2026-04-16 13:11 | 16.66997 | -22.94871 | 1218 ft | 136 kts | 5° |
| 2026-04-16 13:11 | 16.67907 | -22.94874 | 998 ft | 126 kts | 5° |
| 2026-04-16 13:12 | 16.68794 | -22.94866 | 864 ft | 127 kts | 5° |
| 2026-04-16 13:12 | 16.69686 | -22.94870 | 745 ft | 127 kts | 5° |
| 2026-04-16 13:12 | 16.70582 | -22.94879 | 565 ft | 127 kts | 4° |
| 2026-04-16 13:12 | 16.71460 | -22.94882 | 382 ft | 127 kts | 5° |
| 2026-04-16 13:13 | 16.72345 | -22.94888 | 222 ft | 127 kts | 5° |
| 2026-04-16 13:13 | 16.73181 | -22.94889 | 191 ft | 101 kts | 1° |
| 2026-04-16 13:13 | 16.73712 | -22.94895 | 192 ft | 52 kts | 360° |
| 2026-04-16 13:13 | 16.73976 | -22.94898 | 189 ft | 33 kts | 2° |
| 2026-04-16 13:14 | 16.74167 | -22.94892 | 185 ft | 18 kts | 6° |
| 2026-04-16 13:14 | 16.74260 | -22.94812 | 184 ft | 17 kts | 57° |
| 2026-04-16 13:14 | 16.74296 | -22.94726 | 184 ft | 10 kts | 103° |
| 2026-04-16 13:14 | 16.74234 | -22.94699 | 185 ft | 10 kts | 181° |
| 2026-04-16 13:15 | 16.74158 | -22.94699 | 185 ft | 11 kts | 180° |
| 2026-04-16 13:15 | 16.74079 | -22.94698 | 186 ft | 11 kts | 178° |
| 2026-04-16 13:15 | 16.73999 | -22.94698 | 187 ft | 11 kts | 180° |
| 2026-04-16 13:15 | 16.73915 | -22.94697 | 187 ft | 12 kts | 179° |
| 2026-04-16 13:16 | 16.73832 | -22.94696 | 188 ft | 12 kts | 180° |
| 2026-04-16 13:16 | 16.73746 | -22.94696 | 188 ft | 12 kts | 179° |
| 2026-04-16 13:16 | 16.73655 | -22.94688 | 187 ft | 14 kts | 152° |
| 2026-04-16 13:16 | 16.73580 | -22.94598 | 183 ft | 13 kts | 134° |
| 2026-04-16 13:17 | 16.73560 | -22.94524 | 183 ft | 4 kts | 89° |
| 2026-04-16 13:17 | 16.73560 | -22.94502 | 183 ft | 0 kts | 88° |